createdAt,value
2018-07-21T00:00:49.867Z,79.60
2018-07-21T00:03:18.266Z,79.80
2018-07-21T00:05:46.630Z,79.00
2018-07-21T00:08:14.981Z,79.10
2018-07-21T00:10:43.450Z,79.10
2018-07-21T00:13:11.809Z,79.30
2018-07-21T00:15:40.176Z,79.30
2018-07-21T00:18:08.559Z,79.50
2018-07-21T00:20:36.896Z,79.60
2018-07-21T00:23:05.282Z,79.70
2018-07-21T00:25:33.714Z,80.70
2018-07-21T00:28:02.049Z,81.00
2018-07-21T00:30:30.405Z,81.30
2018-07-21T00:32:58.777Z,81.20
2018-07-21T00:35:27.121Z,81.50
2018-07-21T00:37:55.458Z,81.70
2018-07-21T00:40:23.841Z,82.20
2018-07-21T00:42:52.212Z,83.10
2018-07-21T00:45:20.557Z,84.10
2018-07-21T00:47:48.930Z,84.50
2018-07-21T00:50:17.279Z,85.10
2018-07-21T00:52:45.662Z,85.50
2018-07-21T00:55:14.022Z,85.70
2018-07-21T00:57:42.382Z,86.00
2018-07-21T01:00:10.840Z,85.90
2018-07-21T01:02:39.184Z,85.80
2018-07-21T01:05:07.585Z,85.80
2018-07-21T01:07:35.946Z,86.20
2018-07-21T01:12:32.986Z,86.40
2018-07-21T01:15:01.363Z,85.90
2018-07-21T01:17:29.773Z,85.70
2018-07-21T01:19:58.193Z,85.60
2018-07-21T01:22:26.553Z,85.90
2018-07-21T01:24:54.954Z,86.40
2018-07-21T01:27:23.328Z,86.50
2018-07-21T01:29:51.721Z,86.70
2018-07-21T01:32:20.066Z,87.60
2018-07-21T01:34:48.461Z,88.50
2018-07-21T01:39:44.902Z,88.70
2018-07-21T01:42:13.282Z,88.60
2018-07-21T01:44:41.670Z,89.30
2018-07-21T01:47:10.114Z,90.20
2018-07-21T01:49:38.505Z,90.40
2018-07-21T01:52:06.885Z,90.60
2018-07-21T01:54:35.250Z,91.10
2018-07-21T01:57:03.662Z,91.10
2018-07-21T01:59:32.022Z,91.20
2018-07-21T02:02:00.396Z,91.00
2018-07-21T02:04:28.802Z,91.30
2018-07-21T02:06:57.181Z,91.40
2018-07-21T02:09:25.558Z,91.70
2018-07-21T02:11:53.924Z,91.90
2018-07-21T02:16:50.447Z,92.30
2018-07-21T02:19:18.865Z,92.40
2018-07-21T02:21:47.226Z,92.30
2018-07-21T02:24:15.577Z,92.70
2018-07-21T02:26:43.906Z,92.20
2018-07-21T02:29:12.272Z,92.40
2018-07-21T02:31:40.634Z,92.30
2018-07-21T02:34:08.961Z,92.50
2018-07-21T02:36:37.314Z,92.80
2018-07-21T02:39:08.200Z,93.00
2018-07-21T02:41:36.550Z,93.20
2018-07-21T02:44:04.881Z,93.10
2018-07-21T02:46:33.214Z,93.20
2018-07-21T02:49:01.553Z,93.40
2018-07-21T02:51:29.881Z,93.60
2018-07-21T02:53:58.250Z,93.80
2018-07-21T02:56:26.641Z,93.70
2018-07-21T02:58:55.017Z,93.90
2018-07-21T03:01:23.416Z,93.90
2018-07-21T03:03:51.810Z,94.10
2018-07-21T03:06:20.338Z,94.80
2018-07-21T03:08:48.788Z,95.10
2018-07-21T03:11:17.153Z,95.10
2018-07-21T03:13:45.537Z,95.00
2018-07-21T03:16:13.902Z,95.00
2018-07-21T03:18:42.281Z,95.30
2018-07-21T03:21:10.650Z,95.60
2018-07-21T03:23:39.029Z,95.90
2018-07-21T03:26:07.429Z,95.90
2018-07-21T03:28:35.829Z,96.20
2018-07-21T03:31:04.177Z,96.90
2018-07-21T03:33:32.557Z,96.50
2018-07-21T03:36:00.908Z,96.40
2018-07-21T03:38:29.297Z,96.50
2018-07-21T03:40:57.684Z,96.60
2018-07-21T03:43:26.047Z,96.60
2018-07-21T03:45:54.433Z,96.50
2018-07-21T03:48:22.801Z,96.60
2018-07-21T03:50:51.288Z,96.60
2018-07-21T03:53:19.661Z,97.00
2018-07-21T03:55:48.038Z,96.60
2018-07-21T03:58:16.390Z,96.30
2018-07-21T04:00:44.757Z,96.10
2018-07-21T04:03:13.117Z,95.70
2018-07-21T04:05:41.447Z,95.30
2018-07-21T04:08:09.799Z,95.10
2018-07-21T04:10:38.133Z,95.00
2018-07-21T04:15:34.536Z,94.50
2018-07-21T04:18:02.881Z,94.60
2018-07-21T04:20:31.248Z,94.20
2018-07-21T04:22:59.574Z,94.20
2018-07-21T04:25:27.913Z,93.90
2018-07-21T04:27:56.277Z,93.60
2018-07-21T04:30:24.615Z,93.60
2018-07-21T04:32:52.938Z,93.70
2018-07-21T04:35:21.285Z,94.10
2018-07-21T04:37:49.609Z,94.50
2018-07-21T04:40:18.014Z,94.50
2018-07-21T04:42:46.346Z,94.70
2018-07-21T04:45:14.709Z,94.60
2018-07-21T04:47:43.068Z,94.50
2018-07-21T04:50:11.425Z,94.40
2018-07-21T04:52:39.781Z,94.60
2018-07-21T04:55:08.158Z,94.50
2018-07-21T04:57:36.512Z,94.50
2018-07-21T05:00:05.947Z,94.70
2018-07-21T05:02:34.381Z,94.70
2018-07-21T05:05:02.748Z,94.90
2018-07-21T05:07:31.207Z,95.10
2018-07-21T05:09:59.572Z,94.90
2018-07-21T05:12:27.934Z,94.80
2018-07-21T05:14:56.285Z,94.90
2018-07-21T05:17:24.653Z,95.00
2018-07-21T05:19:53.010Z,95.10
2018-07-21T05:22:21.379Z,95.10
2018-07-21T05:24:49.748Z,95.20
2018-07-21T05:27:18.143Z,95.20
2018-07-21T05:29:46.550Z,95.40
2018-07-21T05:32:14.925Z,95.60
2018-07-21T05:34:43.297Z,95.20
2018-07-21T05:37:11.665Z,94.90
2018-07-21T05:39:40.040Z,94.60
2018-07-21T05:42:08.595Z,94.20
2018-07-21T05:44:36.957Z,93.80
2018-07-21T05:47:05.384Z,93.70
2018-07-21T05:49:33.752Z,93.80
2018-07-21T05:52:02.110Z,93.70
2018-07-21T05:54:30.464Z,93.50
2018-07-21T05:56:58.790Z,93.70
2018-07-21T05:59:27.143Z,93.70
2018-07-21T06:01:55.546Z,93.80
2018-07-21T06:04:23.870Z,93.60
2018-07-21T06:06:52.217Z,93.60
2018-07-21T06:09:20.547Z,93.60
2018-07-21T06:11:48.880Z,93.50
2018-07-21T06:16:45.373Z,93.40
2018-07-21T06:19:13.748Z,93.50
2018-07-21T06:21:42.099Z,93.20
2018-07-21T06:24:10.448Z,93.20
2018-07-21T06:26:38.811Z,93.30
2018-07-21T06:29:07.132Z,92.90
2018-07-21T06:31:35.501Z,92.70
2018-07-21T06:34:03.857Z,92.60
2018-07-21T06:36:32.185Z,92.10
2018-07-21T06:39:00.569Z,91.80
2018-07-21T06:41:28.905Z,91.70
2018-07-21T06:43:57.304Z,91.70
2018-07-21T06:46:25.569Z,91.80
2018-07-21T06:48:53.903Z,91.80
2018-07-21T06:51:22.250Z,91.60
2018-07-21T06:53:50.633Z,91.50
2018-07-21T06:56:19.072Z,91.20
2018-07-21T06:58:47.430Z,91.30
2018-07-21T07:01:15.804Z,91.20
2018-07-21T07:03:44.167Z,91.10
2018-07-21T07:06:12.533Z,90.80
2018-07-21T07:08:40.913Z,90.40
2018-07-21T07:11:09.273Z,90.40
2018-07-21T07:13:37.686Z,90.20
2018-07-21T07:16:06.097Z,90.10
2018-07-21T07:18:34.521Z,90.30
2018-07-21T07:21:03.018Z,90.00
2018-07-21T07:23:31.405Z,90.00
2018-07-21T07:25:59.793Z,90.00
2018-07-21T07:28:28.143Z,90.00
2018-07-21T07:30:56.533Z,90.10
2018-07-21T07:33:24.911Z,90.00
2018-07-21T07:35:53.273Z,89.60
2018-07-21T07:38:21.657Z,89.10
2018-07-21T07:40:50.065Z,89.10
2018-07-21T07:43:18.441Z,89.80
2018-07-21T07:45:46.849Z,89.80
2018-07-21T07:48:15.210Z,88.90
2018-07-21T07:50:43.599Z,88.10
2018-07-21T07:53:11.980Z,88.00
2018-07-21T07:55:40.341Z,87.40
2018-07-21T07:58:08.745Z,86.90
2018-07-21T08:00:37.101Z,90.30
2018-07-21T08:03:05.553Z,90.90
2018-07-21T08:05:33.896Z,91.20
2018-07-21T08:08:02.273Z,90.80
2018-07-21T08:10:30.633Z,90.70
2018-07-21T08:12:58.971Z,90.30
2018-07-21T08:15:27.353Z,90.10
2018-07-21T08:17:55.744Z,90.60
2018-07-21T08:20:24.124Z,90.90
2018-07-21T08:22:52.509Z,90.90
2018-07-21T08:25:20.865Z,90.80
2018-07-21T08:27:49.257Z,91.50
2018-07-21T08:32:45.645Z,92.50
2018-07-21T08:35:13.993Z,92.70
2018-07-21T08:37:42.325Z,92.50
2018-07-21T08:40:10.677Z,92.60
2018-07-21T08:42:38.998Z,92.50
2018-07-21T08:45:08.202Z,92.40
2018-07-21T08:47:36.556Z,92.50
2018-07-21T08:50:05.413Z,92.30
2018-07-21T08:52:33.772Z,92.40
2018-07-21T08:55:02.156Z,92.80
2018-07-21T08:57:30.561Z,92.40
2018-07-21T08:59:58.958Z,92.40
2018-07-21T09:02:27.349Z,92.30
2018-07-21T09:04:55.729Z,92.50
2018-07-21T09:07:24.097Z,93.00
2018-07-21T09:09:52.464Z,93.60
2018-07-21T09:12:20.957Z,94.10
2018-07-21T09:14:49.317Z,94.00
2018-07-21T09:17:20.433Z,93.80
2018-07-21T09:19:50.235Z,93.70
2018-07-21T09:22:18.645Z,93.50
2018-07-21T09:24:47.569Z,93.40
2018-07-21T09:27:16.037Z,93.60
2018-07-21T09:29:44.465Z,94.20
2018-07-21T09:32:13.164Z,94.30
2018-07-21T09:34:41.781Z,94.40
2018-07-21T09:37:10.534Z,94.70
2018-07-21T09:39:38.881Z,94.90
2018-07-21T09:42:07.706Z,95.30
2018-07-21T09:44:36.148Z,95.30
2018-07-21T09:47:05.022Z,95.60
2018-07-21T09:49:33.782Z,95.70
2018-07-21T09:52:02.162Z,96.30
2018-07-21T09:54:30.509Z,96.50
2018-07-21T09:56:58.849Z,96.70
2018-07-21T09:59:27.205Z,97.10
2018-07-21T10:01:55.566Z,97.60
2018-07-21T10:04:23.908Z,97.60
2018-07-21T10:06:52.257Z,97.70
2018-07-21T10:09:20.632Z,97.60
2018-07-21T10:11:49.005Z,97.80
2018-07-21T10:14:17.362Z,97.90
2018-07-21T10:19:13.798Z,98.90
2018-07-21T10:21:42.148Z,99.40
2018-07-21T10:24:15.927Z,99.90
2018-07-21T10:26:49.606Z,99.90
2018-07-21T10:29:17.966Z,99.90
2018-07-21T10:31:46.319Z,99.90
2018-07-21T10:34:14.646Z,99.90
2018-07-21T10:36:43.050Z,99.90
2018-07-21T10:39:13.413Z,99.90
2018-07-21T10:41:41.844Z,99.90
2018-07-21T10:44:10.198Z,99.90
2018-07-21T10:46:38.550Z,99.90
2018-07-21T10:49:07.712Z,99.90
2018-07-21T10:51:36.100Z,99.90
2018-07-21T10:54:05.017Z,99.90
2018-07-21T10:56:33.373Z,99.90
2018-07-21T10:59:01.837Z,99.90
2018-07-21T11:01:30.232Z,99.90
2018-07-21T11:03:58.565Z,99.90
2018-07-21T11:06:26.941Z,99.90
2018-07-21T11:08:55.277Z,99.90
2018-07-21T11:11:23.769Z,99.90
2018-07-21T11:13:52.166Z,99.90
2018-07-21T11:16:20.530Z,99.90
2018-07-21T11:18:48.902Z,99.90
2018-07-21T11:21:17.245Z,99.90
2018-07-21T11:23:45.608Z,99.90
2018-07-21T11:26:14.303Z,99.90
2018-07-21T11:28:42.637Z,99.90
2018-07-21T11:31:10.976Z,99.90
2018-07-21T11:33:39.346Z,99.90
2018-07-21T11:36:07.913Z,99.90
2018-07-21T11:38:36.120Z,99.90
2018-07-21T11:41:04.496Z,99.90
2018-07-21T11:43:32.825Z,99.90
2018-07-21T11:46:01.189Z,99.90
2018-07-21T11:48:29.530Z,99.90
2018-07-21T11:50:57.918Z,99.90
2018-07-21T11:53:26.260Z,99.90
2018-07-21T11:55:54.634Z,99.90
2018-07-21T11:58:23.028Z,99.90
2018-07-21T12:00:51.413Z,99.90
2018-07-21T12:03:19.843Z,99.90
2018-07-21T12:05:48.292Z,99.90
2018-07-21T12:08:16.621Z,99.90
2018-07-21T12:10:45.018Z,99.90
2018-07-21T12:13:13.436Z,99.90
2018-07-21T12:15:41.790Z,99.90
2018-07-21T12:18:10.218Z,99.90
2018-07-21T12:20:38.620Z,99.90
2018-07-21T12:23:06.983Z,99.90
2018-07-21T12:25:35.376Z,99.90
2018-07-21T12:28:03.736Z,99.90
2018-07-21T12:30:32.145Z,99.90
2018-07-21T12:33:00.546Z,99.90
2018-07-21T12:35:28.892Z,99.90
2018-07-21T12:37:57.338Z,99.90
2018-07-21T12:40:25.700Z,99.90
2018-07-21T12:42:54.161Z,99.90
2018-07-21T12:45:22.553Z,99.90
2018-07-21T12:47:50.928Z,99.90
2018-07-21T12:50:19.309Z,99.90
2018-07-21T12:52:47.693Z,99.90
2018-07-21T12:55:16.181Z,99.90
2018-07-21T12:57:44.522Z,99.90
2018-07-21T13:00:12.844Z,99.90
2018-07-21T13:02:41.176Z,99.90
2018-07-21T13:05:09.528Z,99.90
2018-07-21T13:07:37.895Z,99.90
2018-07-21T13:10:06.273Z,99.90
2018-07-21T13:12:34.672Z,99.90
2018-07-21T13:15:03.022Z,99.90
2018-07-21T13:17:31.396Z,99.90
2018-07-21T13:19:59.786Z,99.90
2018-07-21T13:22:28.171Z,99.90
2018-07-21T13:24:56.506Z,99.90
2018-07-21T13:27:24.844Z,99.90
2018-07-21T13:29:53.190Z,99.90
2018-07-21T13:32:21.533Z,99.90
2018-07-21T13:34:49.913Z,99.90
2018-07-21T13:37:18.290Z,99.90
2018-07-21T13:39:46.612Z,99.90
2018-07-21T13:42:14.963Z,99.90
2018-07-21T13:44:43.317Z,99.90
2018-07-21T13:49:39.745Z,99.90
2018-07-21T13:52:08.141Z,99.90
2018-07-21T13:54:36.485Z,99.90
2018-07-21T13:57:04.830Z,99.90
2018-07-21T13:59:33.188Z,99.90
2018-07-21T14:02:01.533Z,99.90
2018-07-21T14:04:29.861Z,99.90
2018-07-21T14:06:58.305Z,99.90
2018-07-21T14:09:26.618Z,99.90
2018-07-21T14:11:54.999Z,99.90
2018-07-21T14:14:23.346Z,99.90
2018-07-21T14:16:51.776Z,99.90
2018-07-21T14:19:20.125Z,99.90
2018-07-21T14:21:48.546Z,99.90
2018-07-21T14:24:16.888Z,99.90
2018-07-21T14:26:45.269Z,99.90
2018-07-21T14:29:13.637Z,99.90
2018-07-21T14:31:41.978Z,99.90
2018-07-21T14:34:10.365Z,99.90
2018-07-21T14:36:38.752Z,99.90
2018-07-21T14:39:08.581Z,99.90
2018-07-21T14:41:37.626Z,99.90
2018-07-21T14:44:05.946Z,99.90
2018-07-21T14:46:34.267Z,99.90
2018-07-21T14:49:02.745Z,99.90
2018-07-21T14:51:31.114Z,99.90
2018-07-21T14:53:59.454Z,99.90
2018-07-21T14:56:27.831Z,99.90
2018-07-21T14:58:56.317Z,99.90
2018-07-21T15:01:24.757Z,99.90
2018-07-21T15:03:53.204Z,99.90
2018-07-21T15:06:21.585Z,99.90
2018-07-21T15:08:49.979Z,99.90
2018-07-21T15:11:18.421Z,99.90
2018-07-21T15:13:46.808Z,99.90
2018-07-21T15:16:15.205Z,99.90
2018-07-21T15:18:43.591Z,99.90
2018-07-21T15:21:11.945Z,99.90
2018-07-21T15:23:40.336Z,99.90
2018-07-21T15:26:08.689Z,99.90
2018-07-21T15:28:37.101Z,99.90
2018-07-21T15:31:05.494Z,99.90
2018-07-21T15:33:33.885Z,99.90
2018-07-21T15:36:02.225Z,99.90
2018-07-21T15:38:30.609Z,99.90
2018-07-21T15:40:58.952Z,99.90
2018-07-21T15:43:27.328Z,99.90
2018-07-21T15:45:55.734Z,99.90
2018-07-21T15:48:24.101Z,99.90
2018-07-21T15:53:20.640Z,99.90
2018-07-21T15:55:49.084Z,99.90
2018-07-21T15:58:17.444Z,99.90
2018-07-21T16:00:45.809Z,99.90
2018-07-21T16:03:14.160Z,99.90
2018-07-21T16:05:42.545Z,99.90
2018-07-21T16:08:10.896Z,99.90
2018-07-21T16:10:39.274Z,99.90
2018-07-21T16:13:07.638Z,99.90
2018-07-21T16:15:35.993Z,99.90
2018-07-21T16:18:04.377Z,99.90
2018-07-21T16:20:32.725Z,99.90
2018-07-21T16:23:01.099Z,99.90
2018-07-21T16:25:29.585Z,99.90
2018-07-21T16:27:58.112Z,99.90
2018-07-21T16:30:26.528Z,99.90
2018-07-21T16:32:54.901Z,99.90
2018-07-21T16:35:23.319Z,99.90
2018-07-21T16:37:51.699Z,99.90
2018-07-21T16:40:20.166Z,99.90
2018-07-21T16:42:48.509Z,99.90
2018-07-21T16:45:16.867Z,99.90
2018-07-21T16:47:45.357Z,99.90
2018-07-21T16:50:13.717Z,99.90
2018-07-21T16:52:42.070Z,99.90
2018-07-21T16:55:10.449Z,99.90
2018-07-21T16:57:38.794Z,99.90
2018-07-21T17:00:07.205Z,99.90
2018-07-21T17:02:35.517Z,99.90
2018-07-21T17:05:03.866Z,99.90
2018-07-21T17:07:32.214Z,99.90
2018-07-21T17:10:00.577Z,99.90
2018-07-21T17:12:29.010Z,99.90
2018-07-21T17:14:57.358Z,99.90
2018-07-21T17:17:25.722Z,99.90
2018-07-21T17:19:54.079Z,99.90
2018-07-21T17:22:22.449Z,99.90
2018-07-21T17:24:50.833Z,99.90
2018-07-21T17:27:19.176Z,99.90
2018-07-21T17:29:47.567Z,99.90
2018-07-21T17:32:15.897Z,99.90
2018-07-21T17:34:44.241Z,99.90
2018-07-21T17:37:12.609Z,99.90
2018-07-21T17:39:40.929Z,99.90
2018-07-21T17:42:09.293Z,99.90
2018-07-21T17:44:37.662Z,99.90
2018-07-21T17:47:05.965Z,99.90
2018-07-21T17:49:34.321Z,99.90
2018-07-21T17:52:02.652Z,99.90
2018-07-21T17:54:30.981Z,99.90
2018-07-21T17:56:59.338Z,99.90
2018-07-21T17:59:27.664Z,99.90
2018-07-21T18:01:56.116Z,99.90
2018-07-21T18:04:24.478Z,99.90
2018-07-21T18:06:52.828Z,99.90
2018-07-21T18:09:21.216Z,99.90
2018-07-21T18:11:49.939Z,99.90
2018-07-21T18:14:18.379Z,99.90
2018-07-21T18:16:46.701Z,99.90
2018-07-21T18:19:15.046Z,99.90
2018-07-21T18:21:43.396Z,99.90
2018-07-21T18:24:11.765Z,99.90
2018-07-21T18:26:40.110Z,99.90
2018-07-21T18:29:08.454Z,99.90
2018-07-21T18:31:36.872Z,99.90
2018-07-21T18:34:05.177Z,99.90
2018-07-21T18:36:33.521Z,99.90
2018-07-21T18:39:01.850Z,99.90
2018-07-21T18:41:30.188Z,99.90
2018-07-21T18:43:58.537Z,99.90
2018-07-21T18:46:26.861Z,99.90
2018-07-21T18:48:55.221Z,99.90
2018-07-21T18:51:23.605Z,99.90
2018-07-21T18:53:52.014Z,99.90
2018-07-21T18:56:20.468Z,99.90
2018-07-21T18:58:48.813Z,99.90
2018-07-21T19:01:17.142Z,99.90
2018-07-21T19:03:45.496Z,99.90
2018-07-21T19:06:13.857Z,99.90
2018-07-21T19:08:47.525Z,99.90
2018-07-21T19:11:15.864Z,99.90
2018-07-21T19:13:44.237Z,99.90
2018-07-21T19:16:17.873Z,99.90
2018-07-21T19:18:46.202Z,99.90
2018-07-21T19:21:20.059Z,99.90
2018-07-21T19:23:49.336Z,99.90
2018-07-21T19:26:22.857Z,99.90
2018-07-21T19:28:51.380Z,99.90
2018-07-21T19:31:19.874Z,99.90
2018-07-21T19:33:48.292Z,99.90
2018-07-21T19:36:16.656Z,99.90
2018-07-21T19:38:45.034Z,99.90
2018-07-21T19:41:18.661Z,99.90
2018-07-21T19:43:47.014Z,99.90
2018-07-21T19:46:15.352Z,99.90
2018-07-21T19:48:43.695Z,99.90
2018-07-21T19:51:12.081Z,99.90
2018-07-21T19:53:40.422Z,99.90
2018-07-21T19:56:08.770Z,99.90
2018-07-21T19:58:37.140Z,99.90
2018-07-21T20:01:05.473Z,99.90
2018-07-21T20:03:33.816Z,99.90
2018-07-21T20:06:02.146Z,99.90
2018-07-21T20:08:30.518Z,99.90
2018-07-21T20:10:58.884Z,99.90
2018-07-21T20:13:27.233Z,99.90
2018-07-21T20:15:55.573Z,99.90
2018-07-21T20:18:24.781Z,99.90
2018-07-21T20:20:53.198Z,99.90
2018-07-21T20:23:21.573Z,99.90
2018-07-21T20:25:49.933Z,99.90
2018-07-21T20:28:18.300Z,99.90
2018-07-21T20:30:46.641Z,99.90
2018-07-21T20:33:14.993Z,99.90
2018-07-21T20:35:43.347Z,99.90
2018-07-21T20:38:11.685Z,99.90
2018-07-21T20:40:40.034Z,99.90
2018-07-21T20:43:08.374Z,99.90
2018-07-21T20:45:36.702Z,99.90
2018-07-21T20:48:05.058Z,99.90
2018-07-21T20:50:33.394Z,99.90
2018-07-21T20:53:01.757Z,99.90
2018-07-21T20:55:30.085Z,99.90
2018-07-21T20:58:01.537Z,99.90
2018-07-21T21:00:30.746Z,99.90
2018-07-21T21:02:59.037Z,99.90
2018-07-21T21:05:27.371Z,99.90
2018-07-21T21:07:55.843Z,99.90
2018-07-21T21:10:24.226Z,99.90
2018-07-21T21:12:52.798Z,99.90
2018-07-21T21:15:21.199Z,99.90
2018-07-21T21:17:49.585Z,99.90
2018-07-21T21:20:17.925Z,99.90
2018-07-21T21:22:46.291Z,99.90
2018-07-21T21:25:14.681Z,99.90
2018-07-21T21:27:43.052Z,99.90
2018-07-21T21:30:11.427Z,99.90
2018-07-21T21:32:39.788Z,99.90
2018-07-21T21:35:08.270Z,99.90
2018-07-21T21:37:36.669Z,99.90
2018-07-21T21:40:05.188Z,99.90
2018-07-21T21:42:33.588Z,99.90
2018-07-21T21:45:01.884Z,99.90
2018-07-21T21:47:30.493Z,99.90
2018-07-21T21:49:58.832Z,99.90
2018-07-21T21:52:27.191Z,99.90
2018-07-21T21:54:55.521Z,99.90
2018-07-21T21:57:23.869Z,99.90
2018-07-21T21:59:52.226Z,99.90
2018-07-21T22:02:20.625Z,99.90
2018-07-21T22:04:49.042Z,99.90
2018-07-21T22:07:17.357Z,99.90
2018-07-21T22:09:45.702Z,99.90
2018-07-21T22:12:14.114Z,99.90
2018-07-21T22:14:42.466Z,99.90
2018-07-21T22:17:10.880Z,99.90
2018-07-21T22:19:39.323Z,99.90
2018-07-21T22:22:07.741Z,99.90
2018-07-21T22:24:36.119Z,99.90
2018-07-21T22:27:04.530Z,99.90
2018-07-21T22:29:32.882Z,99.90
2018-07-21T22:32:01.217Z,99.90
2018-07-21T22:34:29.564Z,99.90
2018-07-21T22:36:57.970Z,99.90
2018-07-21T22:39:26.306Z,99.90
2018-07-21T22:41:54.652Z,99.90
2018-07-21T22:44:22.990Z,99.90
2018-07-21T22:46:51.349Z,99.90
2018-07-21T22:49:19.698Z,99.90
2018-07-21T22:51:48.017Z,99.90
2018-07-21T22:54:16.374Z,99.90
2018-07-21T22:56:44.717Z,99.90
2018-07-21T22:59:13.160Z,99.90
2018-07-21T23:01:42.441Z,99.90
2018-07-21T23:04:10.909Z,99.90
2018-07-21T23:06:39.381Z,99.90
2018-07-21T23:09:08.489Z,99.90
2018-07-21T23:11:37.037Z,99.90
2018-07-21T23:14:05.532Z,99.90
2018-07-21T23:16:33.901Z,99.90
2018-07-21T23:19:02.245Z,99.90
2018-07-21T23:21:30.673Z,99.90
2018-07-21T23:23:58.998Z,99.90
2018-07-21T23:28:55.545Z,99.90
2018-07-21T23:31:23.945Z,99.90
2018-07-21T23:33:52.394Z,99.90
2018-07-21T23:36:20.864Z,99.90
2018-07-21T23:38:49.364Z,99.90
2018-07-21T23:41:18.075Z,99.90
2018-07-21T23:43:46.441Z,99.90
2018-07-21T23:46:14.761Z,99.90
2018-07-21T23:48:43.108Z,99.90
2018-07-21T23:51:11.448Z,99.90
2018-07-21T23:53:39.802Z,99.90
2018-07-21T23:56:08.165Z,99.90
2018-07-21T23:58:36.541Z,99.90
